Time;durP1;ratioP1;P1;durP2;ratioP2;P2;SDS_P1;SDS_P2;PMS_P1;PMS_P2;Temp;Humidity;BMP_temperature;BMP_pressure;BME280_temperature;BME280_humidity;BME280_pressure;Samples;Min_cycle;Max_cycle;Signal;HPM_P1;HPM_P2
2022/09/16 00:00:09;;;;;;;5.35;4.90;;;;;;;15.70;97.45;98268.47;1814421;77;21131;-71
2022/09/16 00:02:35;;;;;;;6.37;4.90;;;;;;;15.64;97.62;98260.05;1800264;78;21817;-70
2022/09/16 00:05:03;;;;;;;5.65;4.92;;;;;;;15.54;97.80;98254.77;1806931;77;21432;-73
2022/09/16 00:07:30;;;;;;;5.60;5.10;;;;;;;15.57;97.88;98254.01;1799230;78;21034;-72
2022/09/16 00:09:58;;;;;;;6.65;5.70;;;;;;;15.57;98.05;98254.01;1811631;77;21037;-71
2022/09/16 00:12:25;;;;;;;5.17;4.67;;;;;;;15.49;98.28;98261.38;1815074;77;21029;-73
2022/09/16 00:14:53;;;;;;;6.08;5.42;;;;;;;15.48;98.34;98250.91;1820616;77;21089;-71
2022/09/16 00:17:20;;;;;;;7.58;5.78;;;;;;;15.51;98.18;98250.41;1804429;77;21057;-72
2022/09/16 00:19:47;;;;;;;6.22;5.65;;;;;;;15.47;98.33;98251.44;1798421;77;21600;-74
2022/09/16 00:22:14;;;;;;;6.28;4.83;;;;;;;15.40;98.55;98254.76;1816427;78;21072;-71
2022/09/16 00:24:40;;;;;;;5.83;5.33;;;;;;;15.40;98.50;98260.11;1820439;78;20993;-74
2022/09/16 00:27:07;;;;;;;5.70;5.20;;;;;;;15.45;98.51;98252.20;1796826;78;21592;-73
2022/09/16 00:29:34;;;;;;;6.37;5.65;;;;;;;15.44;98.56;98253.23;1806893;77;21060;-73
2022/09/16 00:32:01;;;;;;;6.00;5.40;;;;;;;15.38;98.70;98248.02;1811993;77;21015;-73
2022/09/16 00:34:28;;;;;;;6.03;5.40;;;;;;;15.40;98.75;98244.05;1816110;77;21119;-72
2022/09/16 00:36:55;;;;;;;7.03;5.87;;;;;;;15.46;98.54;98240.42;1817719;77;21196;-73
2022/09/16 00:39:21;;;;;;;6.37;5.70;;;;;;;15.44;98.58;98256.44;1817728;77;21251;-70
2022/09/16 00:41:48;;;;;;;6.33;5.37;;;;;;;15.38;98.68;98254.18;1803137;77;21010;-72
2022/09/16 00:44:53;;;;;;;5.95;5.45;;;;;;;15.43;98.56;98259.65;1816278;77;21072;-72
2022/09/16 00:47:30;;;;;;;6.55;5.95;;;;;;;15.45;98.36;98262.91;1817327;77;21041;-72
2022/09/16 00:50:02;;;;;;;6.60;4.62;;;;;;;15.36;98.68;98269.66;1804626;77;21548;-73
2022/09/16 00:52:28;;;;;;;8.35;5.25;;;;;;;15.36;98.80;98273.67;1798390;77;21830;-72
2022/09/16 00:54:55;;;;;;;6.97;5.83;;;;;;;15.39;98.69;98271.04;1791146;78;21030;-73
2022/09/16 00:57:22;;;;;;;5.87;5.28;;;;;;;15.37;98.80;98275.28;1793460;79;20995;-74
2022/09/16 00:59:52;;;;;;;5.85;5.25;;;;;;;15.30;98.91;98277.30;1793641;78;21090;-74
2022/09/16 01:02:20;;;;;;;6.35;5.75;;;;;;;15.36;98.90;98266.98;1800716;78;21076;-74
2022/09/16 01:05:04;;;;;;;6.37;5.87;;;;;;;15.42;98.78;98275.41;1802196;79;21178;-71
2022/09/16 01:07:39;;;;;;;6.90;5.47;;;;;;;15.38;98.77;98267.56;1807430;79;21049;-73
2022/09/16 01:10:06;;;;;;;6.97;6.25;;;;;;;15.32;98.83;98279.20;1794475;77;21134;-71
2022/09/16 01:12:34;;;;;;;7.10;6.15;;;;;;;15.36;98.67;98290.26;1802982;78;21082;-75
2022/09/16 01:15:01;;;;;;;8.63;7.03;;;;;;;15.39;98.61;98285.23;1805263;79;21050;-72
2022/09/16 01:17:51;;;;;;;8.58;7.45;;;;;;;15.39;98.76;98289.77;1801040;79;21097;-72
2022/09/16 01:20:48;;;;;;;7.60;6.33;;;;;;;15.34;98.97;98291.83;1798252;79;21001;-72
2022/09/16 01:23:39;;;;;;;7.12;6.42;;;;;;;15.41;98.78;98288.48;1791995;77;21518;-72
2022/09/16 01:26:39;;;;;;;8.33;7.53;;;;;;;15.47;98.46;98287.56;1787935;79;21003;-71
2022/09/16 01:29:36;;;;;;;8.90;6.97;;;;;;;15.40;98.45;98299.44;1807637;79;21096;-73
2022/09/16 01:32:17;;;;;;;9.53;7.30;;;;;;;15.36;98.58;98296.41;1771352;78;21089;-73
2022/09/16 01:34:58;;;;;;;7.80;7.00;;;;;;;15.39;98.64;98295.93;1803724;77;21087;-72
2022/09/16 01:37:44;;;;;;;8.53;7.62;;;;;;;15.34;99.00;98293.97;1791729;78;21093;-72
2022/09/16 01:40:50;;;;;;;11.88;7.92;;;;;;;15.36;98.86;98284.38;1806280;78;21221;-72
2022/09/16 01:43:31;;;;;;;10.63;9.53;;;;;;;15.46;98.81;98289.94;1801348;79;21033;-72
2022/09/16 01:46:23;;;;;;;9.70;7.75;;;;;;;15.39;98.47;98289.23;1805105;79;21136;-72
2022/09/16 01:49:01;;;;;;;8.78;7.78;;;;;;;15.32;98.50;98299.27;1797056;77;20998;-71
2022/09/16 01:51:33;;;;;;;8.73;7.83;;;;;;;15.35;98.43;98312.17;1806699;79;21009;-72
2022/09/16 01:54:27;;;;;;;8.43;7.37;;;;;;;15.30;98.53;98317.42;1783239;77;21533;-71
2022/09/16 01:56:57;;;;;;;;;;;;;;;15.25;98.52;98314.63;1802678;77;21029;-71
2022/09/16 01:59:35;;;;;;;10.13;8.40;;;;;;;15.27;98.46;98317.34;1796944;77;21311;-72
2022/09/16 02:02:18;;;;;;;8.23;7.42;;;;;;;15.21;98.72;98320.96;1792579;77;21503;-72
2022/09/16 02:04:48;;;;;;;;;;;;;;;15.13;98.75;98311.95;1794329;77;21077;-73
2022/09/16 02:07:16;;;;;;;8.30;7.47;;;;;;;15.13;98.65;98302.59;1810154;77;20182;-73
2022/09/16 02:09:48;;;;;;;8.88;8.00;;;;;;;15.16;98.29;98302.11;1792455;77;21049;-71
2022/09/16 02:12:20;;;;;;;8.55;7.65;;;;;;;15.09;98.32;98306.25;1806971;77;22014;-72
2022/09/16 02:14:46;;;;;;;7.83;6.90;;;;;;;15.03;98.50;98300.50;1741364;82;21054;-72
2022/09/16 02:17:22;;;;;;;9.28;8.28;;;;;;;15.11;98.24;98300.67;1808277;79;21053;-73
2022/09/16 02:19:56;;;;;;;8.38;7.58;;;;;;;15.14;97.91;98302.36;1812177;77;22012;-74
2022/09/16 02:22:33;;;;;;;7.20;6.25;;;;;;;15.09;97.66;98298.76;1773868;78;21375;-71
2022/09/16 02:25:02;;;;;;;7.30;6.60;;;;;;;15.03;97.74;98303.17;1790921;77;21148;-75
2022/09/16 02:27:29;;;;;;;8.35;7.55;;;;;;;15.06;97.59;98298.67;1791770;79;21010;-72
2022/09/16 02:30:09;;;;;;;10.43;7.83;;;;;;;15.04;97.53;98307.98;1800611;79;21027;-73
2022/09/16 02:32:41;;;;;;;7.45;6.75;;;;;;;14.96;97.56;98297.64;1809298;77;20997;-72
2022/09/16 02:35:09;;;;;;;8.55;6.55;;;;;;;14.97;97.64;98301.93;1795526;77;21006;-73
2022/09/16 02:37:57;;;;;;;8.78;7.85;;;;;;;15.03;97.37;98307.19;1813052;79;21076;-72
2022/09/16 02:40:43;;;;;;;8.10;7.10;;;;;;;15.00;97.38;98306.83;1806925;77;21041;-73
2022/09/16 02:43:10;;;;;;;6.97;6.30;;;;;;;14.89;97.50;98307.09;1808996;79;21014;-74
2022/09/16 02:45:45;;;;;;;7.85;6.60;;;;;;;14.93;97.52;98312.27;1804607;79;21001;-73
2022/09/16 02:48:25;;;;;;;7.65;6.85;;;;;;;14.97;97.30;98313.47;1777305;77;21034;-74
2022/09/16 02:51:09;;;;;;;6.95;6.25;;;;;;;14.89;97.38;98313.78;1794867;77;21190;-73
2022/09/16 02:53:51;;;;;;;7.75;6.95;;;;;;;14.86;97.53;98311.06;1781019;80;21020;-71
2022/09/16 02:56:25;;;;;;;7.72;7.03;;;;;;;14.89;97.30;98307.94;1789809;77;21029;-72
2022/09/16 02:58:52;;;;;;;7.92;6.33;;;;;;;14.82;97.30;98311.76;1807107;77;21065;-73
2022/09/16 03:01:18;;;;;;;6.90;5.95;;;;;;;14.79;97.30;98309.00;1808023;77;21527;-73
2022/09/16 03:03:45;;;;;;;7.35;6.62;;;;;;;14.84;97.15;98305.66;1795837;77;21752;-74
2022/09/16 03:07:24;;;;;;;6.95;6.25;;;;;;;14.80;97.54;98311.98;1868862;75;28001;-71
2022/09/16 03:09:51;;;;;;;6.03;5.42;;;;;;;14.73;97.38;98317.95;1835439;77;20930;-74
2022/09/16 03:13:00;;;;;;;6.87;6.28;;;;;;;14.78;97.08;98322.63;1800428;77;21763;-73
2022/09/16 03:15:49;;;;;;;8.25;6.92;;;;;;;14.75;96.95;98321.20;1805575;78;21090;-72
2022/09/16 03:18:52;;;;;;;6.92;6.30;;;;;;;14.63;97.37;98323.05;1813513;77;21073;-74
2022/09/16 03:21:33;;;;;;;7.60;5.92;;;;;;;14.61;97.42;98321.13;1809676;77;21118;-73
2022/09/16 03:24:46;;;;;;;7.05;6.35;;;;;;;14.60;97.43;98324.30;1823012;76;21041;-73
2022/09/16 03:27:19;;;;;;;6.10;5.60;;;;;;;14.52;97.86;98336.62;1815960;77;21091;-73
2022/09/16 03:29:51;;;;;;;8.63;6.45;;;;;;;14.51;98.05;98331.02;1840960;77;20969;-72
2022/09/16 03:32:22;;;;;;;8.33;6.72;;;;;;;14.52;98.05;98330.75;1801135;77;20915;-72
2022/09/16 03:35:09;;;;;;;7.20;6.50;;;;;;;14.45;98.51;98329.25;1841818;77;21040;-73
2022/09/16 03:37:36;;;;;;;6.45;5.80;;;;;;;14.35;98.84;98333.28;1836215;77;21005;-73
2022/09/16 03:40:12;;;;;;;7.47;6.70;;;;;;;14.40;98.84;98324.58;1803425;77;21280;-70
2022/09/16 03:42:41;;;;;;;7.28;6.30;;;;;;;14.42;98.75;98314.47;1816700;78;21502;-72
2022/09/16 03:45:18;;;;;;;10.03;6.62;;;;;;;14.36;99.14;98310.05;1826040;78;20998;-73
2022/09/16 03:47:46;;;;;;;7.03;5.75;;;;;;;14.29;99.57;98302.14;1828532;76;21540;-72
2022/09/16 03:50:13;;;;;;;7.15;6.12;;;;;;;14.32;99.56;98307.01;1824692;77;21115;-75
2022/09/16 03:52:39;;;;;;;8.83;7.92;;;;;;;14.41;99.41;98315.53;1831349;77;21173;-74
2022/09/16 03:55:07;;;;;;;7.33;6.62;;;;;;;14.40;99.38;98314.41;1839990;77;21080;-71
2022/09/16 03:57:34;;;;;;;5.60;5.10;;;;;;;14.36;99.57;98316.20;1836456;77;20986;-70
2022/09/16 04:00:02;;;;;;;7.78;5.22;;;;;;;14.39;99.44;98319.45;1833907;77;21318;-74
2022/09/16 04:02:30;;;;;;;6.47;5.83;;;;;;;14.45;99.03;98330.59;1843511;76;21053;-73
2022/09/16 04:04:57;;;;;;;6.60;6.00;;;;;;;14.39;99.13;98327.47;1826292;77;21242;-73
2022/09/16 04:07:23;;;;;;;9.33;5.40;;;;;;;14.33;99.37;98325.18;1811123;78;21517;-75
2022/09/16 04:09:49;;;;;;;6.60;5.08;;;;;;;14.33;99.27;98309.98;1829089;77;22490;-72
2022/09/16 04:12:16;;;;;;;6.92;5.67;;;;;;;14.39;98.92;98313.61;1822195;76;21527;-72
2022/09/16 04:14:42;;;;;;;6.70;6.00;;;;;;;14.36;98.97;98325.55;1818001;77;21056;-71
2022/09/16 04:17:10;;;;;;;6.35;5.75;;;;;;;14.29;99.26;98339.53;1836966;77;21300;-73
2022/09/16 04:19:37;;;;;;;5.87;5.28;;;;;;;14.26;99.26;98347.98;1847417;77;21001;-70
2022/09/16 04:22:03;;;;;;;7.80;5.90;;;;;;;14.28;99.12;98355.25;1819315;77;21033;-73
2022/09/16 04:24:31;;;;;;;10.75;9.75;;;;;;;14.22;99.37;98354.83;1817379;77;21025;-72
2022/09/16 04:26:57;;;;;;;7.67;6.97;;;;;;;14.15;99.88;98356.23;1824993;77;21553;-73
2022/09/16 04:29:24;;;;;;;7.40;6.67;;;;;;;14.14;100.00;98351.95;1799705;77;21069;-71
2022/09/16 04:31:50;;;;;;;7.15;6.35;;;;;;;14.21;99.95;98357.19;1819308;77;21004;-71
2022/09/16 04:34:17;;;;;;;6.80;6.20;;;;;;;14.22;100.00;98352.69;1822571;77;21130;-71
2022/09/16 04:36:44;;;;;;;7.40;6.53;;;;;;;14.15;100.00;98352.75;1849664;77;21092;-73
2022/09/16 04:39:11;;;;;;;7.65;5.87;;;;;;;14.15;100.00;98366.11;1851686;77;21068;-73
2022/09/16 04:41:38;;;;;;;6.97;6.28;;;;;;;14.20;99.75;98372.94;1799133;77;21230;-73
2022/09/16 04:44:04;;;;;;;6.75;6.03;;;;;;;14.18;99.97;98372.34;1834279;77;21021;-72
2022/09/16 04:46:31;;;;;;;6.65;6.05;;;;;;;14.13;100.00;98374.87;1839911;76;21060;-73
2022/09/16 04:48:58;;;;;;;6.87;5.35;;;;;;;14.13;100.00;98385.02;1837206;77;21076;-72
2022/09/16 04:51:27;;;;;;;6.80;6.20;;;;;;;14.19;99.91;98371.81;1823115;77;21100;-73
2022/09/16 04:53:55;;;;;;;7.40;6.30;;;;;;;14.20;99.97;98374.27;1825261;78;21169;-73
2022/09/16 04:56:26;;;;;;;7.60;5.72;;;;;;;14.13;99.92;98384.21;1825545;78;21013;-73
2022/09/16 04:58:56;;;;;;;8.35;6.20;;;;;;;14.16;99.99;98388.59;1808611;78;21092;-73
2022/09/16 05:01:26;;;;;;;8.30;6.45;;;;;;;14.21;99.99;98386.57;1820834;77;21061;-71
2022/09/16 05:03:55;;;;;;;7.45;5.70;;;;;;;14.20;100.00;98390.30;1825494;78;21605;-71
2022/09/16 05:06:27;;;;;;;7.45;6.03;;;;;;;14.18;100.00;98389.70;1837894;77;21097;-72
2022/09/16 05:08:54;;;;;;;6.17;5.58;;;;;;;14.29;99.81;98393.46;1818210;77;21486;-73
2022/09/16 05:11:26;;;;;;;5.78;5.17;;;;;;;14.32;99.60;98384.48;1826973;77;21053;-73
2022/09/16 05:13:57;;;;;;;6.42;5.83;;;;;;;14.29;99.61;98390.29;1816469;77;21035;-72
2022/09/16 05:16:24;;;;;;;5.97;5.35;;;;;;;14.30;99.34;98394.58;1832939;77;21002;-73
2022/09/16 05:18:53;;;;;;;7.55;5.70;;;;;;;14.36;99.44;98403.02;1799757;77;22186;-72
2022/09/16 05:21:21;;;;;;;7.30;6.45;;;;;;;14.36;99.47;98392.33;1839180;76;21002;-74
2022/09/16 05:23:47;;;;;;;6.90;6.08;;;;;;;14.35;99.74;98392.55;1836469;77;21049;-73
2022/09/16 05:26:24;;;;;;;7.25;5.62;;;;;;;14.42;99.66;98393.81;1850797;77;21014;-72
2022/09/16 05:28:50;;;;;;;6.78;5.72;;;;;;;14.55;99.29;98397.66;1823214;78;21723;-72
2022/09/16 05:31:21;;;;;;;6.53;5.90;;;;;;;14.57;99.20;98398.80;1824981;77;21427;-72
2022/09/16 05:33:59;;;;;;;5.50;5.00;;;;;;;14.56;99.28;98395.26;1807979;77;21454;-71
2022/09/16 05:36:28;;;;;;;6.28;5.72;;;;;;;14.64;99.04;98398.16;1833587;77;20965;-73
2022/09/16 05:38:55;;;;;;;6.22;5.62;;;;;;;14.70;98.75;98399.95;1801732;78;21076;-73
2022/09/16 05:41:22;;;;;;;6.87;5.58;;;;;;;14.65;98.77;98399.28;1765451;78;21560;-74
2022/09/16 05:43:49;;;;;;;6.62;6.03;;;;;;;14.68;98.89;98400.67;1774071;79;21162;-72
2022/09/16 05:46:21;;;;;;;7.12;6.42;;;;;;;14.77;98.59;98397.98;1762400;79;21065;-73
2022/09/16 05:48:47;;;;;;;7.17;6.47;;;;;;;14.78;98.78;98400.15;1778195;78;21576;-73
2022/09/16 05:51:17;;;;;;;6.60;6.00;;;;;;;14.78;98.68;98396.14;1760855;78;20994;-74
2022/09/16 05:53:46;;;;;;;7.22;6.55;;;;;;;14.87;98.44;98403.60;1769328;78;21002;-75
2022/09/16 05:56:19;;;;;;;9.00;7.10;;;;;;;14.93;98.43;98403.19;1775733;78;21288;-74
2022/09/16 05:58:45;;;;;;;6.83;6.22;;;;;;;14.95;98.56;98410.48;1765596;79;21077;-72
2022/09/16 06:01:16;;;;;;;7.47;6.78;;;;;;;15.02;98.29;98412.52;1766000;78;21058;-76
2022/09/16 06:03:45;;;;;;;7.83;7.12;;;;;;;15.12;98.20;98412.78;1790879;79;21041;-76
2022/09/16 06:06:21;;;;;;;10.78;8.78;;;;;;;15.16;98.00;98413.64;1787465;78;21057;-76
2022/09/16 06:08:48;;;;;;;8.78;7.87;;;;;;;15.14;98.44;98409.86;1765707;80;21840;-76
2022/09/16 06:11:15;;;;;;;9.53;7.10;;;;;;;15.22;97.93;98408.70;1773912;79;21038;-76
2022/09/16 06:13:44;;;;;;;9.95;7.35;;;;;;;15.30;97.40;98407.86;1747079;80;21105;-76
2022/09/16 06:16:12;;;;;;;7.70;7.00;;;;;;;15.30;97.24;98410.53;1790612;80;21008;-78
2022/09/16 06:18:39;;;;;;;7.95;6.60;;;;;;;15.27;97.17;98404.83;1762223;80;21634;-76
2022/09/16 06:21:09;;;;;;;9.35;6.72;;;;;;;15.33;97.17;98410.05;1750007;80;21089;-77
2022/09/16 06:23:36;;;;;;;8.70;7.80;;;;;;;15.39;97.07;98413.66;1795167;80;21044;-77
2022/09/16 06:26:07;;;;;;;8.30;7.03;;;;;;;15.37;97.13;98414.42;1794849;80;21017;-76
2022/09/16 06:28:35;;;;;;;8.33;7.50;;;;;;;15.41;97.00;98410.77;1787447;80;21012;-76
2022/09/16 06:31:09;;;;;;;7.70;7.00;;;;;;;15.49;96.68;98415.27;1774186;80;21574;-76
2022/09/16 06:33:36;;;;;;;7.30;6.60;;;;;;;15.50;96.49;98418.22;1775465;80;21228;-75
2022/09/16 06:36:07;;;;;;;7.42;6.05;;;;;;;15.51;97.05;98420.36;1773351;79;21004;-75
2022/09/16 06:38:35;;;;;;;7.65;6.85;;;;;;;15.64;97.10;98417.98;1801401;78;21132;-78
2022/09/16 06:41:05;;;;;;;9.28;7.17;;;;;;;15.75;97.04;98420.41;1781171;80;21068;-77
2022/09/16 06:43:31;;;;;;;7.78;6.97;;;;;;;15.76;96.22;98418.01;1786158;78;21100;-76
2022/09/16 06:46:08;;;;;;;7.83;6.95;;;;;;;15.78;95.46;98422.10;1782951;80;21268;-80
2022/09/16 06:48:34;;;;;;;7.50;6.80;;;;;;;15.83;95.38;98420.86;1764919;78;21588;-79
2022/09/16 06:51:07;;;;;;;8.38;7.50;;;;;;;15.78;95.31;98434.65;1791802;80;21012;-81
2022/09/16 06:53:34;;;;;;;7.90;7.20;;;;;;;15.72;95.45;98436.37;1795305;80;21017;-78
2022/09/16 06:56:07;;;;;;;11.83;8.00;;;;;;;15.79;95.35;98443.80;1770860;80;21516;-80
2022/09/16 06:58:34;;;;;;;8.68;7.87;;;;;;;15.79;95.36;98434.95;1786077;78;21143;-77
2022/09/16 07:01:14;;;;;;;9.73;8.83;;;;;;;15.74;95.71;98439.66;1782932;80;21549;-75
2022/09/16 07:03:45;;;;;;;9.10;7.72;;;;;;;15.77;95.73;98440.54;1795191;78;21052;-72
2022/09/16 07:06:13;;;;;;;8.78;7.83;;;;;;;15.88;95.54;98444.27;1785590;80;21083;-73
2022/09/16 07:08:39;;;;;;;9.50;8.43;;;;;;;15.90;95.40;98437.63;1771050;79;21045;-74
2022/09/16 07:11:14;;;;;;;8.10;6.87;;;;;;;15.92;95.41;98444.09;1789014;78;21631;-78
2022/09/16 07:13:41;;;;;;;8.40;7.60;;;;;;;16.09;95.19;98454.37;1761465;79;21066;-73
2022/09/16 07:16:11;;;;;;;9.78;6.92;;;;;;;16.30;94.88;98446.24;1772807;79;21527;-74
2022/09/16 07:18:37;;;;;;;8.58;7.50;;;;;;;16.41;93.98;98447.78;1793188;78;21009;-73
2022/09/16 07:21:12;;;;;;;8.03;7.15;;;;;;;16.54;93.13;98452.86;1767309;80;21054;-77
2022/09/16 07:23:40;;;;;;;9.08;8.15;;;;;;;16.69;92.77;98449.14;1774103;80;21610;-74
2022/09/16 07:26:16;;;;;;;9.70;8.10;;;;;;;16.78;91.40;98463.50;1785839;78;21042;-76
2022/09/16 07:28:45;;;;;;;7.75;6.87;;;;;;;16.83;91.62;98452.91;1771938;79;21065;-76
2022/09/16 07:31:18;;;;;;;6.75;6.12;;;;;;;17.00;91.13;98455.63;1780941;80;21561;-74
2022/09/16 07:33:47;;;;;;;8.75;7.85;;;;;;;17.15;89.66;98455.06;1764123;80;20990;-75
2022/09/16 07:36:17;;;;;;;12.30;11.00;;;;;;;17.18;89.50;98454.05;1786809;80;21266;-74
2022/09/16 07:38:43;;;;;;;7.28;6.17;;;;;;;17.23;88.94;98460.02;1766959;80;21038;-75
2022/09/16 07:41:15;;;;;;;8.18;6.65;;;;;;;17.31;88.29;98456.97;1793857;80;21063;-75
2022/09/16 07:43:41;;;;;;;8.35;6.85;;;;;;;17.39;88.12;98460.58;1774196;79;21105;-75
2022/09/16 07:46:10;;;;;;;7.28;6.67;;;;;;;17.40;87.91;98457.36;1767547;80;21087;-78
2022/09/16 07:48:37;;;;;;;6.87;6.25;;;;;;;17.33;88.04;98460.22;1764672;80;21207;-78
2022/09/16 07:51:09;;;;;;;7.75;6.05;;;;;;;17.30;88.07;98464.18;1780942;80;22058;-77
2022/09/16 07:53:36;;;;;;;6.28;5.67;;;;;;;17.36;87.59;98461.05;1766093;80;21041;-75
2022/09/16 07:56:05;;;;;;;6.10;5.50;;;;;;;17.33;86.96;98455.39;1772516;79;21044;-78
2022/09/16 07:58:32;;;;;;;7.92;6.17;;;;;;;17.29;86.62;98457.73;1784298;78;21001;-78
2022/09/16 08:00:58;;;;;;;9.38;6.72;;;;;;;17.31;86.42;98456.97;1753079;80;21562;-78
2022/09/16 08:03:25;;;;;;;8.43;6.47;;;;;;;17.42;86.38;98466.81;1776297;80;21060;-77
2022/09/16 08:05:51;;;;;;;7.90;6.78;;;;;;;17.45;85.71;98459.59;1768497;79;21066;-77
2022/09/16 08:08:19;;;;;;;7.15;6.40;;;;;;;17.49;85.23;98453.22;1790635;77;21088;-75
2022/09/16 08:10:54;;;;;;;7.15;5.87;;;;;;;17.58;85.61;98449.61;1772426;78;20989;-75
2022/09/16 08:13:22;;;;;;;6.25;5.65;;;;;;;17.76;84.97;98445.84;1763132;80;21114;-77
2022/09/16 08:15:49;;;;;;;7.75;5.47;;;;;;;17.85;83.77;98455.14;1757054;80;21018;-76
2022/09/16 08:18:15;;;;;;;7.53;5.85;;;;;;;17.86;83.16;98453.53;1764019;79;21558;-77
2022/09/16 08:20:42;;;;;;;6.10;5.22;;;;;;;17.87;83.25;98453.82;1759671;80;21050;-76
2022/09/16 08:23:10;;;;;;;6.47;5.87;;;;;;;18.04;82.84;98450.27;1763854;80;21088;-74
2022/09/16 08:25:37;;;;;;;6.37;5.33;;;;;;;18.21;82.55;98452.38;1764928;80;21122;-74
2022/09/16 08:28:03;;;;;;;6.95;5.78;;;;;;;18.33;80.96;98451.45;1754266;81;21033;-75
2022/09/16 08:30:31;;;;;;;8.90;5.45;;;;;;;18.37;80.58;98448.03;1755704;80;21016;-74
2022/09/16 08:32:57;;;;;;;8.48;5.25;;;;;;;18.46;80.35;98449.19;1773089;78;21164;-76
2022/09/16 08:35:25;;;;;;;9.35;5.55;;;;;;;18.61;78.58;98453.94;1763592;79;21589;-75
2022/09/16 08:37:52;;;;;;;4.97;4.45;;;;;;;18.78;78.38;98455.20;1753313;80;21246;-75
2022/09/16 08:40:22;;;;;;;7.75;5.67;;;;;;;18.92;76.46;98454.30;1765956;79;20994;-74
2022/09/16 08:43:12;;;;;;;8.85;5.58;;;;;;;19.03;75.86;98450.65;1749215;80;21533;-77
2022/09/16 08:46:08;;;;;;;5.58;4.97;;;;;;;19.10;75.37;98456.34;1767468;79;21128;-78
2022/09/16 08:48:45;;;;;;;5.62;5.00;;;;;;;19.13;75.62;98459.89;1770910;78;21151;-76
2022/09/16 08:51:16;;;;;;;5.58;4.20;;;;;;;19.22;77.16;98458.36;1765006;80;21822;-81
2022/09/16 08:54:02;;;;;;;4.33;3.80;;;;;;;19.53;76.86;98466.16;1750664;80;20997;-79
2022/09/16 08:56:33;;;;;;;7.70;4.65;;;;;;;19.75;74.23;98457.17;1750648;80;21051;-79
2022/09/16 08:59:01;;;;;;;7.03;4.50;;;;;;;19.83;72.34;98458.84;1766597;79;21029;-77
2022/09/16 09:01:42;;;;;;;6.92;4.78;;;;;;;19.90;71.66;98451.89;1760435;79;21507;-79
2022/09/16 09:04:11;;;;;;;7.55;4.42;;;;;;;20.07;73.46;98450.38;1759818;79;21400;-78
2022/09/16 09:07:00;;;;;;;6.35;4.37;;;;;;;20.48;72.54;98449.20;1734098;79;21010;-80
2022/09/16 09:09:41;;;;;;;7.05;4.62;;;;;;;20.93;69.62;98446.91;1766057;79;21034;-75
2022/09/16 09:12:33;;;;;;;4.33;3.92;;;;;;;21.45;69.52;98435.64;1771811;78;21013;-77
2022/09/16 09:15:11;;;;;;;6.53;4.33;;;;;;;21.95;67.23;98438.80;1771572;79;21038;-79
2022/09/16 09:18:19;;;;;;;4.78;4.08;;;;;;;22.57;66.42;98441.30;1775144;79;21122;-78
2022/09/16 09:21:14;;;;;;;6.05;4.87;;;;;;;23.14;67.70;98448.55;1771677;79;21085;-79
2022/09/16 09:24:19;;;;;;;5.22;4.72;;;;;;;23.82;64.49;98445.03;1774174;79;21054;-77
2022/09/16 09:26:59;;;;;;;5.00;4.20;;;;;;;24.31;61.04;98437.70;1761083;79;21090;-75
2022/09/16 09:29:46;;;;;;;5.10;4.60;;;;;;;24.81;59.76;98441.44;1767736;79;21113;-75
2022/09/16 09:32:47;;;;;;;8.53;5.00;;;;;;;25.18;56.40;98452.02;1763679;79;21059;-77
2022/09/16 09:35:46;;;;;;;5.97;4.33;;;;;;;25.35;55.81;98445.52;1771001;79;21534;-76
2022/09/16 09:38:41;;;;;;;4.83;4.33;;;;;;;25.26;52.93;98444.02;1770071;79;21065;-73
2022/09/16 09:41:16;;;;;;;4.70;4.12;;;;;;;25.09;54.10;98440.47;1788866;80;21229;-76
2022/09/16 09:44:17;;;;;;;5.55;4.40;;;;;;;25.16;53.53;98441.44;1768413;80;21597;-75
2022/09/16 09:46:47;;;;;;;5.72;3.62;;;;;;;25.20;53.89;98445.73;1772558;80;21934;-73
2022/09/16 09:49:28;;;;;;;5.75;3.90;;;;;;;24.98;52.07;98453.95;1751128;80;21605;-71
2022/09/16 09:52:03;;;;;;;5.37;4.25;;;;;;;24.81;52.59;98453.09;1770703;79;20980;-73
2022/09/16 09:54:33;;;;;;;7.17;4.15;;;;;;;24.70;52.91;98448.91;1764994;80;21095;-70
2022/09/16 09:57:08;;;;;;;6.00;3.98;;;;;;;24.60;53.40;98453.12;1757253;78;21100;-72
2022/09/16 09:59:44;;;;;;;5.83;4.00;;;;;;;24.64;53.12;98460.38;1778161;78;21309;-74
2022/09/16 10:02:20;;;;;;;4.40;3.67;;;;;;;24.63;51.91;98458.78;1778036;79;21068;-75
2022/09/16 10:04:47;;;;;;;5.45;3.70;;;;;;;24.76;52.31;98458.59;1756014;78;21111;-72
2022/09/16 10:07:19;;;;;;;4.75;3.55;;;;;;;24.97;52.45;98459.67;1780843;79;21084;-71
2022/09/16 10:10:00;;;;;;;4.10;3.65;;;;;;;25.25;51.55;98464.72;1777384;80;22134;-70
2022/09/16 10:12:29;;;;;;;5.37;3.90;;;;;;;25.52;50.69;98468.09;1800529;78;21766;-72
2022/09/16 10:14:56;;;;;;;7.05;4.30;;;;;;;25.78;51.87;98462.20;1780395;80;21031;-69
2022/09/16 10:17:22;;;;;;;4.95;4.10;;;;;;;26.21;50.68;98456.52;1791593;78;22297;-69
2022/09/16 10:19:53;;;;;;;4.33;3.75;;;;;;;26.66;48.88;98458.89;1803060;78;21068;-72
2022/09/16 10:22:31;;;;;;;6.65;4.47;;;;;;;27.01;48.33;98459.77;1793529;78;21088;-77
2022/09/16 10:25:05;;;;;;;4.65;4.03;;;;;;;27.16;47.73;98458.05;1803839;78;21114;-77
2022/09/16 10:27:34;;;;;;;4.83;3.85;;;;;;;27.21;46.64;98470.17;1754831;80;21147;-77
2022/09/16 10:30:16;;;;;;;4.62;3.85;;;;;;;27.14;47.18;98470.36;1793941;80;21537;-77
2022/09/16 10:33:03;;;;;;;6.30;4.20;;;;;;;27.14;46.72;98476.64;1795156;78;21510;-75
2022/09/16 10:35:33;;;;;;;5.50;4.35;;;;;;;27.18;47.49;98468.65;1775964;80;21595;-75
2022/09/16 10:38:18;;;;;;;4.45;4.05;;;;;;;27.08;46.81;98468.30;1765974;80;21147;-75
2022/09/16 10:40:54;;;;;;;5.87;4.00;;;;;;;26.75;47.03;98464.41;1789749;80;21171;-76
2022/09/16 10:43:21;;;;;;;4.53;4.10;;;;;;;26.29;47.20;98469.44;1775058;80;21507;-75
2022/09/16 10:45:51;;;;;;;8.33;5.65;;;;;;;26.07;48.18;98468.20;1794149;80;20992;-76
2022/09/16 10:48:22;;;;;;;4.75;4.35;;;;;;;26.17;48.04;98465.84;1777557;80;21111;-75
2022/09/16 10:50:57;;;;;;;5.20;4.35;;;;;;;26.55;48.12;98456.09;1774958;80;21205;-74
2022/09/16 10:53:39;;;;;;;4.87;3.40;;;;;;;26.98;46.46;98460.38;1795045;80;21538;-73
2022/09/16 10:56:17;;;;;;;5.03;4.10;;;;;;;27.01;46.07;98452.95;1795036;80;21517;-75
2022/09/16 10:58:43;;;;;;;4.72;4.20;;;;;;;26.91;45.86;98454.00;1795035;80;21191;-75
2022/09/16 11:01:38;;;;;;;6.58;4.30;;;;;;;26.60;46.18;98464.77;1775139;80;21034;-75
2022/09/16 11:04:47;;;;;;;5.97;4.65;;;;;;;26.10;47.10;98468.17;1785845;80;21012;-75
2022/09/16 11:07:32;;;;;;;5.03;4.58;;;;;;;25.45;47.40;98464.38;1794901;78;21299;-77
2022/09/16 11:10:17;;;;;;;5.33;4.83;;;;;;;24.76;48.64;98470.81;1789720;80;21000;-75
2022/09/16 11:13:12;;;;;;;5.62;4.12;;;;;;;24.21;50.17;98470.39;1765453;81;21105;-74
2022/09/16 11:16:08;;;;;;;5.08;4.58;;;;;;;24.04;50.50;98467.58;1769182;80;20982;-75
2022/09/16 11:18:46;;;;;;;5.30;4.80;;;;;;;23.97;50.68;98469.84;1707022;80;21165;-73
2022/09/16 11:22:04;;;;;;;5.17;4.08;;;;;;;23.98;51.00;98471.44;1775534;80;21363;-75
2022/09/16 11:25:01;;;;;;;4.30;3.85;;;;;;;24.05;50.54;98480.06;1761466;78;21567;-74
2022/09/16 11:27:42;;;;;;;7.53;4.50;;;;;;;24.03;50.60;98476.83;1760880;79;21057;-75
2022/09/16 11:30:18;;;;;;;5.45;4.42;;;;;;;23.90;51.09;98475.59;1738107;81;21355;-75
2022/09/16 11:33:10;;;;;;;4.60;3.90;;;;;;;24.03;51.00;98475.47;1762626;81;21214;-75
2022/09/16 11:36:08;;;;;;;5.30;4.20;;;;;;;24.34;50.48;98468.34;1789957;80;20985;-75
2022/09/16 11:38:58;;;;;;;6.35;4.53;;;;;;;24.79;49.59;98479.73;1768845;81;21455;-73
2022/09/16 11:41:50;;;;;;;6.28;4.08;;;;;;;25.47;48.64;98468.16;1772776;80;20989;-75
2022/09/16 11:45:00;;;;;;;5.47;4.03;;;;;;;26.09;46.91;98469.27;1768451;81;21045;-75
2022/09/16 11:47:45;;;;;;;4.55;4.10;;;;;;;26.41;46.79;98455.32;1788506;80;21241;-75
2022/09/16 11:50:37;;;;;;;5.95;4.30;;;;;;;26.38;45.85;98453.98;1747192;81;21565;-74
2022/09/16 11:53:35;;;;;;;5.47;4.33;;;;;;;25.99;46.44;98455.86;1782652;80;21001;-75
2022/09/16 11:56:16;;;;;;;5.10;4.15;;;;;;;25.61;47.24;98460.04;1738454;80;21025;-77
2022/09/16 11:58:59;;;;;;;5.83;4.40;;;;;;;25.38;47.86;98470.77;1760411;79;21051;-75
2022/09/16 12:01:37;;;;;;;4.30;3.98;;;;;;;25.13;48.56;98476.02;1740317;81;21037;-75
2022/09/16 12:04:37;;;;;;;4.50;4.10;;;;;;;24.93;48.76;98479.81;1763967;81;21062;-75
2022/09/16 12:07:15;;;;;;;6.17;3.60;;;;;;;24.75;49.02;98474.64;1790139;80;21498;-76
2022/09/16 12:09:55;;;;;;;6.20;4.53;;;;;;;24.60;50.38;98487.86;1762779;80;21092;-75